Time;durP1;ratioP1;P1;durP2;ratioP2;P2;SDS_P1;SDS_P2;PMS_P1;PMS_P2;Temp;Humidity;BMP_temperature;BMP_pressure;BME280_temperature;BME280_humidity;BME280_pressure;Samples;Min_cycle;Max_cycle;Signal;HPM_P1;HPM_P2
2023/08/24 00:01:59;;;;;;;;;;;23.70;71.60;;;23.16;64.87;96325.72;6059680;23;19921;-87
2023/08/24 00:04:27;;;;;;;;;;;23.70;71.60;;;23.17;65.41;96333.78;6107451;23;20265;-87
2023/08/24 00:06:57;;;;;;;;;;;23.70;71.60;;;23.17;65.16;96339.34;6083310;23;19921;-87
2023/08/24 00:09:25;;;;;;;;;;;23.80;71.70;;;23.19;65.05;96339.78;6083030;23;20280;-87
2023/08/24 00:11:53;;;;;;;;;;;23.70;71.60;;;23.19;65.01;96328.63;6107377;23;19921;-87
2023/08/24 00:14:21;;;;;;;;;;;23.70;71.70;;;23.19;65.33;96327.81;6083290;23;19944;-87
2023/08/24 00:16:50;;;;;;;;;;;23.70;71.70;;;23.19;65.26;96328.63;6082794;23;19921;-87
2023/08/24 00:19:18;;;;;;;;;;;23.80;71.70;;;23.20;65.40;96327.50;6083229;23;19921;-87
2023/08/24 00:21:46;;;;;;;;;;;23.80;71.70;;;23.22;65.21;96336.34;6131087;23;19921;-87
2023/08/24 00:24:16;;;;;;;;;;;23.80;71.70;;;23.21;65.18;96333.91;6107410;23;19921;-87
2023/08/24 00:26:44;;;;;;;;;;;23.80;71.70;;;23.21;65.07;96336.69;6106213;23;19928;-87
2023/08/24 00:29:12;;;;;;;;;;;23.80;71.70;;;23.19;65.10;96337.00;6082789;23;19921;-87
2023/08/24 00:31:42;;;;;;;;;;;23.80;71.70;;;23.20;64.93;96349.84;6083229;23;19921;-87
2023/08/24 00:34:10;;;;;;;;;;;23.80;71.70;;;23.22;65.20;96353.09;6106975;23;20286;-87
2023/08/24 00:36:38;;;;;;;;;;;23.80;71.70;;;23.20;65.25;96344.25;6106534;23;20353;-87
2023/08/24 00:39:06;;;;;;;;;;;23.80;71.60;;;23.20;65.33;96349.03;6083951;23;19928;-87
2023/08/24 00:41:36;;;;;;;;;;;23.70;71.70;;;23.19;65.39;96350.16;6110012;23;19947;-87
2023/08/24 00:44:07;;;;;;;;;;;23.70;71.70;;;23.21;65.30;96347.88;6083778;23;19928;-87
2023/08/24 00:46:38;;;;;;;;;;;23.70;71.70;;;23.20;65.49;96349.84;6107830;23;20252;-87
2023/08/24 00:49:06;;;;;;;;;;;23.80;71.70;;;23.18;65.34;96352.13;6084034;23;19920;-87
2023/08/24 00:51:34;;;;;;;;;;;23.70;71.80;;;23.21;65.54;96353.47;6084360;23;19928;-87
2023/08/24 00:54:03;;;;;;;;;;;23.70;71.80;;;23.19;65.12;96347.38;6108425;23;19928;-87
2023/08/24 00:56:31;;;;;;;;;;;23.70;71.70;;;23.19;65.38;96348.16;6083685;23;19921;-87
2023/08/24 00:59:01;;;;;;;;;;;23.80;71.80;;;23.22;65.15;96355.09;6084124;23;19928;-87
2023/08/24 01:01:29;;;;;;;;;;;23.70;71.80;;;23.20;65.38;96351.81;6084474;23;19979;-87
2023/08/24 01:03:58;;;;;;;;;;;23.70;71.80;;;23.19;65.29;96347.38;6083720;23;19921;-87
2023/08/24 01:06:26;;;;;;;;;;;23.80;71.80;;;23.21;65.18;96345.88;6107764;23;19928;-87
2023/08/24 01:08:54;;;;;;;;;;;23.80;71.80;;;23.20;65.05;96341.44;6083983;23;19921;-87
2023/08/24 01:11:27;;;;;;;;;;;23.80;71.80;;;23.22;65.07;96339.13;6108062;23;19921;-87
2023/08/24 01:13:59;;;;;;;;;;;23.80;71.90;;;23.20;65.22;96333.06;6118176;23;19928;-87
2023/08/24 01:16:30;;;;;;;;;;;23.70;71.80;;;23.21;65.33;96343.09;6108010;23;19921;-87
2023/08/24 01:19:00;;;;;;;;;;;23.80;71.80;;;23.20;65.55;96337.84;6084139;23;20329;-87
2023/08/24 01:21:29;;;;;;;;;;;23.80;71.80;;;23.21;65.34;96345.88;6084267;23;19921;-87
2023/08/24 01:24:04;;;;;;;;;;;23.80;71.80;;;23.21;65.20;96343.09;6084145;23;19921;-87
2023/08/24 01:26:34;;;;;;;;;;;23.80;71.80;;;23.20;65.27;96338.66;6108109;23;19921;-87
2023/08/24 01:29:03;;;;;;;;;;;23.80;71.70;;;23.20;65.34;96337.84;6083854;23;19921;-87
2023/08/24 01:31:31;;;;;;;;;;;23.80;71.70;;;23.19;64.97;96347.38;6060608;23;19925;-87
2023/08/24 01:33:59;;;;;;;;;;;23.80;71.70;;;23.20;65.16;96349.03;6107895;23;19928;-87
2023/08/24 01:36:28;;;;;;;;;;;23.80;71.70;;;23.20;65.22;96346.25;6083629;23;19928;-87
2023/08/24 01:39:00;;;;;;;;;;;23.80;71.70;;;23.19;64.88;96339.78;6107825;23;19936;-87
2023/08/24 01:41:31;;;;;;;;;;;23.80;71.60;;;23.20;65.24;96347.03;6084401;23;19921;-87
2023/08/24 01:44:00;;;;;;;;;;;23.70;71.70;;;23.17;65.29;96339.34;6108023;23;19921;-87
2023/08/24 01:46:29;;;;;;;;;;;23.70;71.70;;;23.17;65.10;96338.53;6107850;23;19928;-87
2023/08/24 01:48:57;;;;;;;;;;;23.70;71.70;;;23.18;65.09;96329.78;6060253;23;20336;-87
2023/08/24 01:51:27;;;;;;;;;;;23.70;71.60;;;23.15;65.36;96336.09;6108038;23;19928;-87
2023/08/24 01:53:57;;;;;;;;;;;23.70;71.70;;;23.16;65.08;96326.56;6083803;23;19928;-87
2023/08/24 01:56:26;;;;;;;;;;;23.70;71.60;;;23.16;65.37;96332.13;6131842;23;19921;-87
2023/08/24 01:58:54;;;;;;;;;;;23.70;71.70;;;23.16;65.08;96323.75;6107412;23;20237;-87
2023/08/24 02:01:26;;;;;;;;;;;23.70;71.70;;;23.14;64.91;96323.28;6107730;23;19925;-87
2023/08/24 02:03:55;;;;;;;;;;;23.70;71.60;;;23.13;65.10;96321.66;6083485;23;19928;-88
2023/08/24 02:06:23;;;;;;;;;;;23.70;71.60;;;23.13;65.01;96318.88;6113134;23;20018;-87
2023/08/24 02:08:52;;;;;;;;;;;23.70;71.50;;;23.10;64.80;96312.00;6107910;23;19936;-87
2023/08/24 02:11:20;;;;;;;;;;;23.70;71.20;;;23.08;64.89;96324.66;6083992;23;19921;-87
2023/08/24 02:13:48;;;;;;;;;;;23.70;71.30;;;23.06;64.75;96325.03;6083498;23;20268;-87
2023/08/24 02:16:17;;;;;;;;;;;23.60;71.20;;;23.04;64.91;96318.19;6107564;23;19921;-87
2023/08/24 02:18:47;;;;;;;;;;;23.60;71.30;;;23.03;64.77;96311.75;6107580;23;19921;-87
2023/08/24 02:21:16;;;;;;;;;;;23.60;71.30;;;23.05;64.84;96325.38;6084121;23;20234;-87
2023/08/24 02:23:44;;;;;;;;;;;23.60;71.30;;;23.02;64.81;96310.13;6083517;23;19928;-87
2023/08/24 02:26:14;;;;;;;;;;;23.60;71.30;;;23.04;64.75;96318.97;6107844;23;20359;-87
2023/08/24 02:28:42;;;;;;;;;;;23.60;71.20;;;23.06;64.94;96322.25;6108041;23;19921;-87
2023/08/24 02:31:16;;;;;;;;;;;23.60;71.20;;;23.05;64.72;96317.00;6084897;23;19921;-87
2023/08/24 02:33:44;;;;;;;;;;;23.60;71.30;;;23.04;64.76;96313.41;6084047;23;20328;-87
2023/08/24 02:36:18;;;;;;;;;;;23.60;71.20;;;23.03;65.00;96316.56;6083778;23;19920;-87
2023/08/24 02:38:48;;;;;;;;;;;23.60;71.20;;;23.02;64.93;96324.09;6108131;23;19921;-87
2023/08/24 02:41:17;;;;;;;;;;;23.60;71.20;;;23.04;64.91;96327.34;6132394;23;19921;-87
2023/08/24 02:43:48;;;;;;;;;;;23.60;71.30;;;23.03;64.79;96319.34;6107934;23;19921;-87
2023/08/24 02:48:59;;;;;;;;;;;23.60;71.20;;;23.03;64.73;96322.13;6102670;23;19921;-87
2023/08/24 02:51:32;;;;;;;;;;;23.60;71.20;;;23.02;64.66;96320.50;6132300;23;19921;-87
2023/08/24 02:54:01;;;;;;;;;;;23.60;71.20;;;23.02;64.67;96314.91;6107694;23;19921;-87
2023/08/24 02:56:32;;;;;;;;;;;23.60;71.20;;;23.02;64.95;96320.50;6083205;23;19928;-87
2023/08/24 02:59:02;;;;;;;;;;;23.60;71.10;;;23.01;64.71;96314.09;6084549;23;19921;-87
2023/08/24 03:01:38;;;;;;;;;;;23.60;71.20;;;23.01;64.93;96319.66;6082973;23;19929;-87
2023/08/24 03:04:06;;;;;;;;;;;23.60;71.10;;;22.99;64.86;96311.66;6107604;23;19943;-87
2023/08/24 03:06:39;;;;;;;;;;;23.60;71.10;;;23.01;64.57;96324.47;6088466;23;19921;-87
2023/08/24 03:09:08;;;;;;;;;;;23.60;71.00;;;22.99;64.50;96316.41;6107819;23;20340;-87
2023/08/24 03:11:39;;;;;;;;;;;23.60;71.00;;;22.97;64.90;96325.16;6117598;23;20233;-87
2023/08/24 03:14:13;;;;;;;;;;;23.60;71.00;;;22.99;64.57;96327.56;6107584;23;19928;-87
2023/08/24 03:16:41;;;;;;;;;;;23.60;71.00;;;22.98;64.79;96321.19;6111694;23;19921;-87
2023/08/24 03:19:17;;;;;;;;;;;23.60;71.00;;;22.96;64.55;96320.72;6107652;23;19921;-87
2023/08/24 03:21:58;;;;;;;;;;;23.60;71.00;;;22.98;64.78;96325.94;6083439;23;19921;-87
2023/08/24 03:24:33;;;;;;;;;;;23.60;71.10;;;22.98;64.67;96320.38;6141996;23;19928;-87
2023/08/24 03:27:14;;;;;;;;;;;23.60;71.10;;;22.99;65.06;96327.56;6107140;23;19921;-87
2023/08/24 03:29:52;;;;;;;;;;;23.60;71.10;;;22.99;64.97;96327.56;6107738;23;20402;-87
2023/08/24 03:32:55;;;;;;;;;;;23.60;71.10;;;22.98;65.00;96332.38;6107244;23;19929;-87
2023/08/24 03:35:51;;;;;;;;;;;;;;;;;;;;;
2023/08/24 03:38:43;;;;;;;;;;;23.60;71.10;;;22.99;64.92;96322.00;6107347;23;19924;-87
2023/08/24 03:41:47;;;;;;;;;;;23.60;71.10;;;22.99;64.94;96331.19;6085045;23;19921;-87
2023/08/24 03:47:53;;;;;;;;;;;;;;;;;;;;;
2023/08/24 03:51:01;;;;;;;;;;;23.50;71.00;;;22.96;64.50;96339.47;6129445;23;19921;-87
2023/08/24 03:54:36;;;;;;;;;;;;;;;;;;;;;
2023/08/24 03:57:37;;;;;;;;;;;23.50;70.90;;;22.94;64.45;96337.00;6107173;23;19921;-87
2023/08/24 04:00:29;;;;;;;;;;;23.50;70.90;;;22.95;64.51;96337.84;6131030;23;19921;-87
2023/08/24 04:03:19;;;;;;;;;;;23.50;71.00;;;22.93;64.64;96340.94;6084577;23;19920;-87
2023/08/24 04:06:21;;;;;;;;;;;23.50;71.00;;;22.93;64.70;96346.53;6106643;23;20337;-87
2023/08/24 04:20:11;;;;;;;;;;;;;;;;;;;;;
2023/08/24 04:35:19;;;;;;;;;;;23.50;71.00;;;22.96;64.74;96345.06;5913830;24;19927;-87
2023/08/24 05:33:42;;;;;;;;;;;23.70;71.90;;;23.25;64.93;96360.78;5932663;23;19917;-87
2023/08/24 05:37:10;;;;;;;;;;;23.80;71.60;;;23.21;65.15;96357.03;6008194;23;20016;-87
2023/08/24 05:40:00;;;;;;;;;;;23.80;71.80;;;23.18;65.46;96354.13;6018288;23;19921;-87
2023/08/24 05:43:00;;;;;;;;;;;23.70;71.80;;;23.16;65.71;96354.47;6116754;23;19927;-87
2023/08/24 05:46:02;;;;;;;;;;;23.70;72.10;;;23.13;65.69;96355.16;6110348;23;19921;-87
2023/08/24 05:48:46;;;;;;;;;;;23.70;72.30;;;23.15;65.82;96358.44;6137820;23;19928;-87
2023/08/24 05:51:33;;;;;;;;;;;23.70;72.60;;;23.13;66.13;96357.97;6113806;23;19920;-87
2023/08/24 05:54:04;;;;;;;;;;;23.70;72.70;;;23.13;66.26;96360.75;6136178;23;19920;-87
2023/08/24 05:57:00;;;;;;;;;;;;;;;;;;;;;
2023/08/24 05:59:38;;;;;;;;;;;23.70;73.20;;;23.09;67.11;96357.03;6113143;23;19928;-87
2023/08/24 06:02:13;;;;;;;;;;;23.60;73.90;;;23.12;67.01;96353.53;6113144;23;19928;-88
2023/08/24 06:05:07;;;;;;;;;;;23.60;73.80;;;23.19;67.66;96350.97;6136032;23;19927;-88
2023/08/24 06:07:44;;;;;;;;;;;23.70;74.70;;;23.19;66.96;96356.53;6088392;23;19921;-88
2023/08/24 06:10:13;;;;;;;;;;;23.70;74.10;;;23.22;67.16;96355.88;6137522;23;20256;-88
2023/08/24 06:12:47;;;;;;;;;;;23.70;74.10;;;23.28;66.41;96356.47;6113281;23;19936;-87
2023/08/24 06:15:24;;;;;;;;;;;23.70;73.50;;;23.37;66.51;96354.34;6112647;23;19921;-89
2023/08/24 06:17:54;;;;;;;;;;;23.80;73.60;;;23.40;66.87;96352.84;6113357;23;19921;-88
2023/08/24 06:20:30;;;;;;;;;;;23.90;73.80;;;23.46;66.15;96357.03;6112840;23;19927;-87
2023/08/24 06:23:58;;;;;;;;;;;;;;;;;;;;;
2023/08/24 06:26:56;;;;;;;;;;;24.00;72.90;;;23.69;65.60;96353.75;6136835;23;19928;-88
2023/08/24 06:29:49;;;;;;;;;;;24.10;72.50;;;23.78;65.02;96357.22;6089776;23;19920;-87
2023/08/24 06:32:33;;;;;;;;;;;24.20;71.90;;;23.89;64.62;96351.91;6136994;23;19942;-87
2023/08/24 06:35:13;;;;;;;;;;;24.30;71.30;;;23.96;64.00;96352.19;6111954;23;20347;-87
2023/08/24 06:37:53;;;;;;;;;;;24.40;70.80;;;24.07;63.85;96357.25;6088387;23;19932;-87
2023/08/24 06:40:26;;;;;;;;;;;24.50;70.50;;;24.12;63.75;96355.03;6112972;23;19921;-87
2023/08/24 06:42:57;;;;;;;;;;;24.60;70.20;;;24.19;63.31;96358.03;6088443;23;19920;-87
2023/08/24 06:45:27;;;;;;;;;;;24.60;69.90;;;24.24;63.38;96361.75;6112631;23;20244;-87
2023/08/24 06:48:02;;;;;;;;;;;24.70;69.90;;;24.28;63.08;96362.66;6112558;23;19936;-87
2023/08/24 06:50:33;;;;;;;;;;;24.70;69.80;;;24.33;63.18;96365.22;6113216;23;19975;-87
2023/08/24 06:53:04;;;;;;;;;;;24.80;69.60;;;24.39;62.76;96369.38;6088460;23;20354;-87
2023/08/24 06:55:33;;;;;;;;;;;24.80;69.40;;;24.39;62.67;96366.56;6088202;23;19928;-87
2023/08/24 06:58:01;;;;;;;;;;;24.80;69.30;;;24.41;62.79;96360.59;6136348;23;19927;-87
2023/08/24 07:00:29;;;;;;;;;;;24.80;69.20;;;24.44;63.04;96366.31;6112627;23;19927;-87
2023/08/24 07:02:58;;;;;;;;;;;24.90;69.40;;;24.44;62.85;96366.31;6112550;23;20256;-87
2023/08/24 07:05:29;;;;;;;;;;;24.90;69.30;;;24.42;62.90;96370.63;6087901;23;20341;-87
2023/08/24 07:07:58;;;;;;;;;;;24.90;69.30;;;24.39;63.03;96363.78;6112749;23;20367;-87
2023/08/24 07:10:28;;;;;;;;;;;24.90;69.30;;;24.40;63.00;96368.19;6112306;23;19921;-87
2023/08/24 07:12:56;;;;;;;;;;;24.90;69.50;;;24.42;63.20;96363.06;6136887;23;19927;-87
2023/08/24 07:15:25;;;;;;;;;;;24.90;69.50;;;24.44;62.91;96371.91;6112529;23;19920;-87
2023/08/24 07:17:55;;;;;;;;;;;24.90;69.50;;;24.47;63.31;96365.59;6112358;23;19928;-87
2023/08/24 07:20:26;;;;;;;;;;;25.00;69.60;;;24.50;63.18;96369.66;6112559;23;19931;-87
2023/08/24 07:22:54;;;;;;;;;;;25.00;69.80;;;24.55;63.48;96365.78;6088563;23;19925;-87
2023/08/24 07:25:25;;;;;;;;;;;25.00;70.00;;;24.58;63.86;96365.09;6112463;23;19928;-87
2023/08/24 07:28:03;;;;;;;;;;;25.00;70.40;;;24.63;63.29;96370.41;6112808;23;19927;-87
2023/08/24 07:30:55;;;;;;;;;;;25.10;70.00;;;24.65;63.25;96365.25;6112324;23;19920;-87
2023/08/24 10:13:04;;;;;;;;;;;25.50;68.40;;;24.93;62.38;96297.22;6082237;23;19921;-88
2023/08/24 10:15:58;;;;;;;;;;;25.40;68.40;;;24.92;62.71;96284.38;6083061;23;19921;-88
2023/08/24 10:18:36;;;;;;;;;;;25.50;68.40;;;24.90;62.71;96270.75;6083610;23;19921;-88
2023/08/24 10:21:07;;;;;;;;;;;25.40;68.50;;;24.90;62.69;96275.53;6085247;23;19928;-87
2023/08/24 10:23:38;;;;;;;;;;;25.40;68.60;;;24.89;62.87;96273.91;6083602;23;20268;-87
2023/08/24 10:26:07;;;;;;;;;;;25.40;68.60;;;24.86;62.69;96269.00;6083212;23;19921;-88
2023/08/24 10:28:37;;;;;;;;;;;25.40;68.60;;;24.85;63.08;96270.22;6059483;23;19976;-87
2023/08/24 10:31:08;;;;;;;;;;;25.40;68.80;;;24.85;62.90;96259.81;6093602;23;19928;-87
2023/08/24 10:33:37;;;;;;;;;;;25.40;68.70;;;24.85;63.25;96261.81;6107675;23;19928;-87
2023/08/24 10:36:06;;;;;;;;;;;25.40;69.00;;;24.82;62.86;96257.72;6107400;23;19921;-87
2023/08/24 10:38:36;;;;;;;;;;;25.40;68.90;;;24.85;63.20;96253.41;6059419;23;19921;-87
2023/08/24 10:41:07;;;;;;;;;;;25.40;69.20;;;24.84;62.79;96254.59;6094269;23;19928;-87
2023/08/24 10:43:38;;;;;;;;;;;25.40;68.90;;;24.84;63.04;96244.19;6059483;23;19928;-87
2023/08/24 10:46:12;;;;;;;;;;;25.40;68.90;;;24.82;63.00;96240.94;6081638;23;19921;-87
2023/08/24 10:48:59;;;;;;;;;;;25.40;68.80;;;24.82;63.04;96238.13;6058830;23;20355;-87
2023/08/24 10:51:29;;;;;;;;;;;25.40;68.90;;;24.81;63.05;96242.94;6059396;23;19951;-87
2023/08/24 10:53:58;;;;;;;;;;;25.40;68.90;;;24.81;63.17;96228.94;6108281;23;19928;-87
2023/08/24 10:56:38;;;;;;;;;;;25.40;69.00;;;24.79;63.55;96231.28;6082500;23;19928;-87
2023/08/24 10:59:14;;;;;;;;;;;25.30;69.10;;;24.79;63.06;96220.09;6084075;23;19921;-87
2023/08/24 11:01:44;;;;;;;;;;;25.40;69.10;;;24.78;63.17;96212.06;6083805;23;19921;-87
2023/08/24 11:04:13;;;;;;;;;;;25.30;69.00;;;24.79;63.19;96203.28;6059851;23;19921;-87
2023/08/24 11:06:57;;;;;;;;;;;25.30;69.10;;;24.78;63.24;96212.06;6058799;23;20339;-87
2023/08/24 11:09:25;;;;;;;;;;;25.30;69.10;;;24.78;63.34;96201.66;6059966;23;19925;-87
2023/08/24 11:11:57;;;;;;;;;;;25.30;69.10;;;24.78;63.28;96200.88;6059406;23;20259;-87
2023/08/24 11:14:30;;;;;;;;;;;25.40;69.10;;;24.79;63.15;96208.88;6083300;23;19921;-87
2023/08/24 11:16:59;;;;;;;;;;;25.30;69.10;;;24.77;63.22;96194.44;6082908;23;19928;-87
2023/08/24 11:19:27;;;;;;;;;;;25.30;69.10;;;24.77;63.25;96202.84;6083225;23;20256;-87
2023/08/24 11:21:56;;;;;;;;;;;25.30;69.20;;;24.78;63.21;96200.88;6058897;23;19928;-87
2023/08/24 11:24:24;;;;;;;;;;;25.40;69.20;;;24.76;63.28;96198.41;6059478;23;19921;-87
2023/08/24 11:26:52;;;;;;;;;;;25.30;69.10;;;24.74;63.24;96192.34;6082508;23;19924;-87
2023/08/24 11:29:20;;;;;;;;;;;25.30;69.20;;;24.74;62.95;96197.94;6059255;23;19928;-87
2023/08/24 11:31:50;;;;;;;;;;;25.30;69.20;;;24.75;63.33;96193.97;6083525;23;19921;-87
2023/08/24 11:34:18;;;;;;;;;;;25.30;69.20;;;24.75;63.23;96195.97;6058791;23;19928;-87
2023/08/24 11:36:48;;;;;;;;;;;25.30;69.20;;;24.71;63.33;96201.50;6058465;23;19921;-87
2023/08/24 11:39:22;;;;;;;;;;;25.20;69.30;;;24.74;63.14;96199.97;6082581;23;19921;-87
2023/08/24 11:42:02;;;;;;;;;;;25.30;69.30;;;24.73;63.37;96190.72;6107796;23;19928;-87
2023/08/24 11:44:30;;;;;;;;;;;25.30;69.30;;;24.74;63.39;96206.34;6105278;23;19928;-87
2023/08/24 11:47:00;;;;;;;;;;;25.20;69.40;;;24.75;63.35;96212.78;6058230;23;20292;-87
2023/08/24 11:49:28;;;;;;;;;;;25.20;69.30;;;24.73;63.53;96209.53;6082297;23;19921;-87
2023/08/24 11:51:57;;;;;;;;;;;25.20;69.30;;;24.72;63.62;96208.69;6106711;23;19921;-87
2023/08/24 11:54:25;;;;;;;;;;;25.20;69.30;;;24.70;63.45;96199.88;6082991;23;19970;-87
2023/08/24 11:56:53;;;;;;;;;;;25.20;69.40;;;24.70;63.51;96197.06;6059358;23;19928;-87
2023/08/24 11:59:21;;;;;;;;;;;25.20;69.40;;;24.71;63.53;96200.69;6059187;23;19920;-87
2023/08/24 12:01:50;;;;;;;;;;;25.20;69.40;;;24.69;63.15;96187.06;6058851;23;19921;-87
2023/08/24 12:04:19;;;;;;;;;;;25.20;69.40;;;24.69;63.37;96184.25;6081681;23;19921;-87
2023/08/24 12:06:48;;;;;;;;;;;25.20;69.40;;;24.73;63.29;96192.72;6082696;23;19929;-88
2023/08/24 12:09:16;;;;;;;;;;;25.20;69.40;;;24.71;63.47;96197.88;6058981;23;20338;-87
2023/08/24 12:11:44;;;;;;;;;;;25.20;69.30;;;24.73;63.41;96199.13;6035911;23;19928;-87
2023/08/24 12:14:18;;;;;;;;;;;25.20;69.40;;;24.71;63.25;96193.09;6107171;23;19928;-87
2023/08/24 12:16:46;;;;;;;;;;;25.20;69.30;;;24.71;63.27;96189.47;6058482;23;19928;-87
2023/08/24 12:19:15;;;;;;;;;;;25.30;69.30;;;24.69;63.27;96189.84;6058932;23;20264;-87
2023/08/24 12:22:02;;;;;;;;;;;25.30;69.30;;;24.67;63.31;96187.38;6082424;23;20260;-87
2023/08/24 12:24:35;;;;;;;;;;;25.20;69.40;;;24.68;63.43;96191.00;6082842;23;19928;-85
2023/08/24 12:27:14;;;;;;;;;;;25.20;69.40;;;24.66;63.45;96185.75;6082621;23;19928;-85
2023/08/24 12:29:46;;;;;;;;;;;25.20;69.50;;;24.64;63.73;96178.88;6082483;23;20367;-84
2023/08/24 12:32:16;;;;;;;;;;;25.20;69.50;;;24.67;63.43;96178.19;6083530;23;19921;-84
2023/08/24 12:34:44;;;;;;;;;;;25.20;69.50;;;24.68;63.49;96179.81;6084062;23;19921;-85
2023/08/24 12:37:17;;;;;;;;;;;25.20;69.50;;;24.68;63.28;96177.00;6059751;23;19925;-87
2023/08/24 12:39:50;;;;;;;;;;;25.20;69.50;;;24.67;63.33;96175.38;6060240;23;19921;-87
2023/08/24 12:42:25;;;;;;;;;;;25.20;69.40;;;24.68;63.58;96171.41;6084079;23;19944;-87
2023/08/24 12:44:55;;;;;;;;;;;25.20;69.40;;;24.67;63.49;96166.97;6107777;23;19940;-87
2023/08/24 12:47:23;;;;;;;;;;;25.20;69.40;;;24.67;63.33;96161.38;6083758;23;20260;-87
2023/08/24 12:49:58;;;;;;;;;;;25.20;69.40;;;24.65;63.11;96150.56;6084303;23;19921;-87
2023/08/24 12:52:33;;;;;;;;;;;25.20;69.40;;;24.67;63.23;96156.56;6108381;23;19921;-87
2023/08/24 12:55:04;;;;;;;;;;;25.20;69.40;;;24.67;63.40;96147.38;6084174;23;19972;-87
2023/08/24 12:57:33;;;;;;;;;;;25.20;69.40;;;24.66;63.29;96142.97;6109392;23;19932;-87
2023/08/24 13:00:01;;;;;;;;;;;25.20;69.40;;;24.66;63.29;96142.97;6059892;23;19921;-87
2023/08/24 13:02:29;;;;;;;;;;;25.20;69.40;;;24.67;63.42;96144.59;6107726;23;19921;-87
2023/08/24 13:05:01;;;;;;;;;;;25.20;69.40;;;24.67;63.26;96142.59;6109393;23;19921;-87
2023/08/24 13:07:30;;;;;;;;;;;25.20;69.40;;;24.67;63.20;96130.59;6106849;23;19928;-87
2023/08/24 13:09:59;;;;;;;;;;;25.20;69.40;;;24.67;63.42;96122.19;6060099;23;19928;-87
2023/08/24 13:12:27;;;;;;;;;;;25.20;69.30;;;24.65;63.29;96114.16;6108109;23;19974;-87
2023/08/24 13:14:58;;;;;;;;;;;25.20;69.40;;;24.68;63.47;96118.22;6059893;23;20264;-87
2023/08/24 13:17:27;;;;;;;;;;;25.20;69.30;;;24.67;63.16;96105.41;6059523;23;19921;-87
2023/08/24 13:19:55;;;;;;;;;;;25.20;69.30;;;24.67;63.16;96102.59;6083683;23;19921;-87
2023/08/24 13:22:23;;;;;;;;;;;25.20;69.20;;;24.67;63.55;96097.00;6059726;23;20360;-87
2023/08/24 13:24:56;;;;;;;;;;;25.20;69.20;;;24.66;63.30;96098.19;6059210;23;19928;-87
2023/08/24 13:27:25;;;;;;;;;;;25.20;69.20;;;24.66;63.25;96100.97;6083736;23;19921;-87
2023/08/24 13:29:56;;;;;;;;;;;25.20;69.30;;;24.65;63.24;96094.56;6060106;23;19921;-87
2023/08/24 13:32:29;;;;;;;;;;;25.20;69.20;;;24.66;63.27;96092.56;6083910;23;19921;-87
2023/08/24 13:35:09;;;;;;;;;;;25.20;69.20;;;24.64;63.08;96094.94;6083596;23;19944;-87
2023/08/24 13:37:49;;;;;;;;;;;25.20;69.30;;;24.62;63.34;96102.88;6083395;23;19928;-87
2023/08/24 13:40:26;;;;;;;;;;;25.20;69.20;;;24.63;63.21;96112.88;6059428;23;19921;-87
2023/08/24 13:42:54;;;;;;;;;;;25.10;69.30;;;24.60;63.23;96108.84;6059833;23;19921;-87
2023/08/24 13:45:34;;;;;;;;;;;25.20;69.30;;;24.61;63.22;96113.28;6059339;23;20338;-87
2023/08/24 13:48:07;;;;;;;;;;;25.20;69.30;;;24.62;63.13;96119.66;6059693;23;19921;-87
2023/08/24 13:50:52;;;;;;;;;;;25.10;69.30;;;24.60;63.63;96128.44;6083622;23;19928;-87
2023/08/24 13:53:25;;;;;;;;;;;25.10;69.30;;;24.59;63.20;96126.81;6060529;23;19925;-87
2023/08/24 13:56:00;;;;;;;;;;;25.20;69.30;;;24.61;63.37;96134.81;6059609;23;19928;-87
2023/08/24 13:58:28;;;;;;;;;;;25.10;69.40;;;24.60;63.19;96144.41;6059659;23;19921;-87
2023/08/24 14:00:58;;;;;;;;;;;25.20;69.40;;;24.59;63.29;96142.81;6084201;23;19928;-87
2023/08/24 14:03:58;;;;;;;;;;;25.10;69.40;;;24.60;63.16;96152.78;6108932;23;19928;-87
2023/08/24 14:06:38;;;;;;;;;;;25.10;69.40;;;24.61;63.44;96157.22;6083469;23;19921;-88
2023/08/24 14:09:08;;;;;;;;;;;25.20;69.50;;;24.59;63.35;96159.59;6083672;23;19921;-87
2023/08/24 14:11:53;;;;;;;;;;;;;;;;;;;;;
2023/08/24 14:14:22;;;;;;;;;;;25.10;69.50;;;24.58;63.53;96153.16;6060119;23;19921;-87
2023/08/24 14:17:03;;;;;;;;;;;25.10;69.50;;;24.59;63.18;96152.00;6083438;23;19921;-87
2023/08/24 14:19:34;;;;;;;;;;;25.10;69.60;;;24.59;63.56;96142.81;6082278;23;19988;-87
2023/08/24 14:22:04;;;;;;;;;;;25.10;69.60;;;24.60;63.56;96138.81;6083474;23;19921;-87
2023/08/24 14:24:34;;;;;;;;;;;25.10;69.60;;;24.57;63.52;96128.34;6059608;23;19921;-87
2023/08/24 14:27:19;;;;;;;;;;;25.10;69.50;;;24.59;63.42;96126.00;6108132;23;19928;-87
2023/08/24 14:30:28;;;;;;;;;;;25.10;69.60;;;24.56;63.41;96118.34;6059815;23;20252;-87
2023/08/24 14:33:42;;;;;;;;;;;25.10;69.60;;;24.58;63.65;96108.38;6059540;23;19921;-87
2023/08/24 14:36:19;;;;;;;;;;;25.10;69.70;;;24.58;63.50;96102.00;6060296;23;19921;-87
2023/08/24 14:38:57;;;;;;;;;;;25.10;69.60;;;24.56;63.64;96109.94;6107845;23;19944;-87
2023/08/24 14:41:38;;;;;;;;;;;25.10;69.60;;;24.55;63.58;96094.31;6059414;23;19930;-87
2023/08/24 14:44:11;;;;;;;;;;;25.10;69.60;;;24.56;63.61;96093.16;6059367;23;19921;-87
2023/08/24 14:46:43;;;;;;;;;;;25.10;69.70;;;24.55;63.71;96092.31;6059585;23;19928;-87
2023/08/24 14:49:48;;;;;;;;;;;;;;;;;;;;;
2023/08/24 14:52:27;;;;;;;;;;;25.10;69.80;;;24.55;63.86;96094.31;6106133;23;19928;-87
2023/08/24 14:55:07;;;;;;;;;;;25.10;69.80;;;24.55;63.75;96094.31;6060283;23;19928;-87
2023/08/24 14:57:49;;;;;;;;;;;25.10;69.80;;;24.55;63.76;96099.91;6058539;23;19921;-87
2023/08/24 15:00:31;;;;;;;;;;;25.10;69.80;;;24.56;63.46;96109.94;6058882;23;19933;-87
2023/08/24 15:03:12;;;;;;;;;;;25.10;69.80;;;24.56;63.65;96116.34;6107273;23;20341;-87
2023/08/24 15:08:53;;;;;;;;;;;25.10;69.80;;;24.56;63.57;96119.13;6049276;23;19944;-87
2023/08/24 15:14:22;;;;;;;;;;;25.10;69.80;;;24.57;63.64;96139.56;6081221;23;19921;-87
2023/08/24 15:17:14;;;;;;;;;;;25.10;69.80;;;24.57;63.61;96150.75;6059573;23;19928;-87
2023/08/24 15:19:45;;;;;;;;;;;25.10;69.80;;;24.57;63.52;96154.34;6059374;23;19921;-87
2023/08/24 15:22:23;;;;;;;;;;;25.10;69.90;;;24.58;63.67;96150.38;6083296;23;19921;-87
2023/08/24 15:25:12;;;;;;;;;;;25.10;69.90;;;24.58;63.66;96152.38;6107044;23;19921;-87
2023/08/24 15:27:44;;;;;;;;;;;25.10;69.90;;;24.57;63.61;96145.94;6083264;23;19921;-87
2023/08/24 15:30:34;;;;;;;;;;;25.10;69.80;;;24.59;63.74;96151.19;6107199;23;20478;-87
2023/08/24 15:33:14;;;;;;;;;;;25.10;69.80;;;24.57;63.64;96161.94;6059550;23;19921;-87
2023/08/24 15:35:49;;;;;;;;;;;25.10;69.80;;;24.56;63.60;96160.31;6081130;23;19928;-87
2023/08/24 15:38:33;;;;;;;;;;;25.10;69.80;;;24.55;63.92;96165.09;6061072;23;20251;-87
2023/08/24 15:41:17;;;;;;;;;;;25.10;69.90;;;24.56;63.68;96183.50;6083579;23;20259;-87
2023/08/24 15:44:09;;;;;;;;;;;25.10;69.90;;;24.56;63.80;96166.72;6083072;23;19921;-87
2023/08/24 15:47:07;;;;;;;;;;;25.10;70.00;;;24.54;64.00;96168.25;6107045;23;20225;-87
2023/08/24 15:49:54;;;;;;;;;;;25.10;70.00;;;24.55;63.65;96179.09;6083230;23;19921;-87
2023/08/24 15:53:19;;;;;;;;;;;25.10;70.00;;;24.52;63.99;96183.41;6082994;23;19936;-87
2023/08/24 15:56:11;;;;;;;;;;;25.10;70.00;;;24.52;63.94;96188.22;6060197;23;20336;-88
2023/08/24 15:58:46;;;;;;;;;;;25.00;70.10;;;24.51;63.94;96186.59;6059622;23;19921;-87
2023/08/24 16:01:23;;;;;;;;;;;25.10;70.20;;;24.51;64.07;96187.41;6059537;23;19924;-87
2023/08/24 16:04:04;;;;;;;;;;;25.10;70.20;;;24.54;64.07;96193.44;6059303;23;19921;-87
2023/08/24 16:07:18;;;;;;;;;;;;;;;;;;;;;
2023/08/24 16:13:29;;;;;;;;;;;25.00;70.20;;;24.52;64.11;96189.03;6070375;23;19921;-87
2023/08/24 16:16:48;;;;;;;;;;;25.10;70.20;;;24.53;63.80;96201.00;6061861;23;19921;-87
2023/08/24 16:20:10;;;;;;;;;;;25.00;70.20;;;24.53;64.06;96195.41;5958218;23;19922;-88
2023/08/24 16:26:14;;;;;;;;;;;25.00;70.30;;;24.51;64.21;96206.97;6059209;23;19975;-88
2023/08/24 18:03:34;;;;;;;;;;;24.80;70.10;;;24.24;64.06;96263.81;5917455;24;19927;-86